Time;durP1;ratioP1;P1;durP2;ratioP2;P2;SDS_P1;SDS_P2;PMS_P1;PMS_P2;Temp;Humidity;BMP_temperature;BMP_pressure;BME280_temperature;BME280_humidity;BME280_pressure;Samples;Min_cycle;Max_cycle;Signal;HPM_P1;HPM_P2
2023/10/19 00:00:19;;;;;;;4.47;1.52;;;16.40;94.50;;;;;;5013777;28;20042;-74
2023/10/19 00:02:46;;;;;;;6.68;1.60;;;16.40;94.50;;;;;;5016176;28;20055;-75
2023/10/19 00:05:15;;;;;;;4.30;1.52;;;16.30;94.40;;;;;;5009491;28;20042;-73
2023/10/19 00:07:41;;;;;;;4.45;1.35;;;16.40;94.30;;;;;;5016407;28;20029;-73
2023/10/19 00:10:07;;;;;;;3.85;1.30;;;16.40;94.30;;;;;;5018178;28;20033;-74
2023/10/19 00:12:33;;;;;;;5.82;1.40;;;16.30;94.30;;;;;;5021144;28;20022;-74
2023/10/19 00:14:59;;;;;;;8.20;1.63;;;16.40;94.40;;;;;;5018954;28;20075;-75
2023/10/19 00:17:27;;;;;;;6.40;2.03;;;16.30;94.40;;;;;;5015271;28;20033;-73
2023/10/19 00:22:37;;;;;;;7.43;1.77;;;16.30;94.40;;;;;;5019482;28;20068;-73
2023/10/19 00:25:03;;;;;;;5.20;1.60;;;16.30;94.50;;;;;;5008699;28;20141;-73
2023/10/19 00:27:29;;;;;;;6.82;1.70;;;16.30;94.50;;;;;;5020658;28;20065;-74
2023/10/19 00:30:05;;;;;;;7.25;1.88;;;16.30;94.50;;;;;;5021210;28;20065;-73
2023/10/19 00:32:31;;;;;;;5.05;1.88;;;16.30;94.40;;;;;;5020562;28;20036;-73
2023/10/19 00:34:56;;;;;;;5.47;1.50;;;16.20;94.40;;;;;;5018428;28;20037;-73
2023/10/19 00:37:32;;;;;;;5.63;1.63;;;16.20;94.50;;;;;;5016536;28;20778;-73
2023/10/19 00:40:14;;;;;;;5.10;1.50;;;16.20;94.50;;;;;;5023379;28;20119;-73
2023/10/19 00:42:45;;;;;;;10.88;1.75;;;16.20;94.60;;;;;;5016226;28;20178;-74
2023/10/19 00:45:13;;;;;;;8.23;1.52;;;16.20;94.40;;;;;;5020191;28;20135;-73
2023/10/19 00:47:42;;;;;;;7.07;2.13;;;16.20;94.40;;;;;;5021609;28;20056;-72
2023/10/19 00:50:21;;;;;;;7.93;2.03;;;16.10;94.50;;;;;;5013617;28;20045;-74
2023/10/19 00:52:49;;;;;;;6.72;1.98;;;16.10;94.40;;;;;;5017932;28;20026;-72
2023/10/19 00:55:18;;;;;;;7.15;1.83;;;16.20;94.40;;;;;;5017211;28;20046;-75
2023/10/19 00:57:48;;;;;;;6.25;1.60;;;16.20;94.20;;;;;;5021728;28;20038;-74
2023/10/19 01:00:34;;;;;;;7.65;1.60;;;16.20;93.90;;;;;;5020922;28;20029;-72
2023/10/19 01:03:01;;;;;;;6.22;1.60;;;16.10;93.80;;;;;;5016488;28;20740;-72
2023/10/19 01:05:35;;;;;;;6.45;1.63;;;16.10;93.60;;;;;;5017673;28;20041;-73
2023/10/19 01:08:02;;;;;;;6.70;1.77;;;16.10;93.40;;;;;;5024232;28;20030;-73
2023/10/19 01:10:28;;;;;;;6.07;1.88;;;16.10;93.40;;;;;;5018371;28;20049;-73
2023/10/19 01:12:54;;;;;;;7.88;1.42;;;16.10;93.30;;;;;;5024084;28;20025;-73
2023/10/19 01:17:57;;;;;;;6.30;1.20;;;16.10;92.90;;;;;;5020148;28;20053;-74
2023/10/19 01:28:38;;;;;;;7.55;1.98;;;16.10;92.80;;;;;;5023942;28;20034;-74
2023/10/19 01:31:06;;;;;;;9.02;2.40;;;16.10;92.80;;;;;;5017493;28;20580;-76
2023/10/19 01:33:34;;;;;;;5.25;1.30;;;16.10;92.90;;;;;;5022006;28;20779;-75
2023/10/19 01:36:12;;;;;;;7.50;1.95;;;16.10;92.90;;;;;;5018742;28;20045;-73
2023/10/19 01:38:41;;;;;;;5.65;1.58;;;16.10;92.90;;;;;;5020603;28;20270;-74
2023/10/19 01:41:30;;;;;;;6.38;1.52;;;16.10;92.80;;;;;;5023533;28;20091;-74
2023/10/19 01:43:54;;;;;;;6.85;1.65;;;16.10;92.80;;;;;;5019619;28;20484;-73
2023/10/19 01:46:23;;;;;;;7.13;1.88;;;16.10;92.90;;;;;;5022777;28;20052;-75
2023/10/19 01:48:54;;;;;;;5.88;1.50;;;16.10;92.90;;;;;;5022925;28;20037;-75
2023/10/19 01:51:21;;;;;;;7.07;1.92;;;16.00;92.80;;;;;;5017600;28;20033;-75
2023/10/19 01:53:47;;;;;;;6.50;1.50;;;16.00;92.90;;;;;;5019110;28;20018;-74
2023/10/19 01:56:14;;;;;;;7.93;1.70;;;15.90;92.90;;;;;;5021300;28;20407;-75
2023/10/19 01:58:43;;;;;;;7.55;1.83;;;15.90;93.00;;;;;;5020547;28;20026;-75
2023/10/19 02:03:37;;;;;;;7.60;1.85;;;15.90;93.10;;;;;;5019992;28;20030;-73
2023/10/19 02:06:19;;;;;;;7.72;1.70;;;15.90;93.20;;;;;;5021326;28;20069;-72
2023/10/19 02:08:59;;;;;;;8.15;1.83;;;15.90;93.10;;;;;;5016461;28;20867;-73
2023/10/19 02:11:26;;;;;;;7.15;1.63;;;15.90;93.20;;;;;;5017481;28;20460;-73
2023/10/19 02:14:00;;;;;;;6.10;1.52;;;15.90;93.10;;;;;;5018193;28;20033;-72
2023/10/19 02:16:29;;;;;;;6.97;1.58;;;15.90;93.30;;;;;;5020218;28;20049;-74
2023/10/19 02:18:55;;;;;;;5.90;1.83;;;15.80;93.50;;;;;;5021904;28;20116;-75
2023/10/19 02:21:30;;;;;;;8.43;2.05;;;15.80;93.60;;;;;;5020962;28;20042;-74
2023/10/19 02:23:57;;;;;;;7.85;2.00;;;15.80;93.70;;;;;;5023321;28;20057;-74
2023/10/19 02:26:26;;;;;;;7.93;1.77;;;15.80;93.80;;;;;;5018859;28;20094;-74
2023/10/19 02:28:52;;;;;;;7.00;1.95;;;15.80;93.90;;;;;;5023468;28;20056;-75
2023/10/19 02:31:24;;;;;;;4.70;1.42;;;15.90;93.90;;;;;;5012558;28;20281;-74
2023/10/19 02:34:00;;;;;;;5.38;1.77;;;15.80;94.10;;;;;;5018708;28;20053;-74
2023/10/19 02:36:30;;;;;;;6.97;2.03;;;15.90;94.10;;;;;;5019427;28;20038;-74
2023/10/19 02:39:07;;;;;;;10.27;2.08;;;15.80;94.20;;;;;;5016918;28;20057;-75
2023/10/19 02:41:35;;;;;;;9.50;1.92;;;15.80;94.20;;;;;;5019405;28;20500;-75
2023/10/19 02:44:19;;;;;;;8.35;2.03;;;15.80;94.30;;;;;;5021450;28;20329;-76
2023/10/19 02:46:50;;;;;;;5.65;1.70;;;15.80;94.30;;;;;;5022337;28;20034;-75
2023/10/19 02:49:22;;;;;;;11.70;2.08;;;15.80;94.30;;;;;;5020608;28;20030;-75
2023/10/19 02:51:50;;;;;;;7.63;2.35;;;15.80;94.30;;;;;;5018107;28;20077;-74
2023/10/19 02:54:30;;;;;;;7.10;1.70;;;15.80;94.30;;;;;;5020142;28;20033;-74
2023/10/19 02:56:59;;;;;;;11.02;1.98;;;15.80;94.40;;;;;;5015097;28;20041;-72
2023/10/19 02:59:28;;;;;;;9.70;2.40;;;15.80;94.50;;;;;;5017384;28;20025;-74
2023/10/19 03:02:30;;;;;;;7.85;2.25;;;15.80;94.50;;;;;;5020545;28;20127;-73
2023/10/19 03:04:48;;;;;;;8.07;2.17;;;15.80;94.50;;;;;;5012193;28;20404;-73
2023/10/19 03:07:15;;;;;;;12.05;2.30;;;15.70;94.50;;;;;;5014966;28;20032;-73
2023/10/19 03:09:53;;;;;;;9.98;2.10;;;15.80;94.60;;;;;;5019029;28;20042;-74
2023/10/19 03:12:19;;;;;;;9.82;2.28;;;15.70;94.60;;;;;;5017914;28;20125;-72
2023/10/19 03:14:49;;;;;;;9.00;2.60;;;15.70;94.70;;;;;;5017597;28;20511;-73
2023/10/19 03:17:15;;;;;;;8.93;2.40;;;15.70;94.70;;;;;;5019018;28;20051;-74
2023/10/19 03:19:42;;;;;;;9.45;2.25;;;15.70;94.80;;;;;;5022154;28;20045;-73
2023/10/19 03:22:08;;;;;;;8.80;2.22;;;15.70;94.80;;;;;;5019314;28;20018;-73
2023/10/19 03:24:43;;;;;;;7.43;1.85;;;15.70;94.70;;;;;;5014701;28;20033;-73
2023/10/19 03:27:24;;;;;;;5.75;1.98;;;15.70;94.80;;;;;;5019357;28;20538;-74
2023/10/19 03:30:00;;;;;;;7.75;2.38;;;15.70;94.80;;;;;;5016803;28;20504;-74
2023/10/19 03:32:26;;;;;;;10.18;2.55;;;15.70;94.90;;;;;;5016282;28;20037;-75
2023/10/19 03:34:55;;;;;;;8.88;2.15;;;15.70;94.90;;;;;;5016300;28;20515;-74
2023/10/19 03:37:25;;;;;;;9.05;2.30;;;15.70;95.00;;;;;;5013112;28;20080;-74
2023/10/19 03:39:51;;;;;;;10.18;2.47;;;15.70;95.00;;;;;;5018207;28;20037;-73
2023/10/19 03:42:17;;;;;;;9.95;2.42;;;15.80;94.90;;;;;;5016530;28;20044;-74
2023/10/19 03:44:53;;;;;;;10.05;2.50;;;15.70;95.00;;;;;;5020397;28;20468;-74
2023/10/19 03:47:19;;;;;;;10.77;2.47;;;15.70;95.00;;;;;;5014337;28;20550;-74
2023/10/19 03:49:46;;;;;;;9.20;2.45;;;15.70;95.10;;;;;;5019813;28;20036;-75
2023/10/19 03:54:39;;;;;;;9.77;2.10;;;15.80;95.00;;;;;;5018990;28;20033;-73
2023/10/19 03:57:08;;;;;;;13.85;2.88;;;15.80;95.00;;;;;;5019153;28;20053;-74
2023/10/19 03:59:34;;;;;;;11.70;2.65;;;15.70;95.00;;;;;;5015833;28;20529;-71
2023/10/19 04:02:07;;;;;;;11.55;2.75;;;15.70;95.10;;;;;;5016722;28;20018;-74
2023/10/19 04:04:33;;;;;;;14.07;2.63;;;15.80;95.10;;;;;;5016355;28;20128;-72
2023/10/19 04:06:59;;;;;;;11.90;2.67;;;15.70;95.10;;;;;;5014882;28;20063;-71
2023/10/19 04:09:29;;;;;;;11.75;2.28;;;15.70;95.10;;;;;;5019364;28;20041;-75
2023/10/19 04:11:57;;;;;;;9.82;2.70;;;15.70;95.10;;;;;;5016848;28;20051;-74
2023/10/19 04:14:23;;;;;;;11.02;2.78;;;15.70;95.10;;;;;;5015731;28;20022;-72
2023/10/19 04:16:49;;;;;;;9.88;2.50;;;15.70;95.10;;;;;;5012528;28;20033;-74
2023/10/19 04:19:18;;;;;;;11.75;2.58;;;15.70;95.10;;;;;;5014565;28;20026;-75
2023/10/19 04:21:46;;;;;;;11.45;2.50;;;15.70;95.10;;;;;;5012525;28;20606;-73
2023/10/19 04:24:13;;;;;;;12.10;2.20;;;15.70;95.10;;;;;;5015813;28;20022;-73
2023/10/19 04:26:39;;;;;;;11.90;2.60;;;15.70;95.00;;;;;;5019515;28;20045;-73
2023/10/19 04:29:17;;;;;;;12.18;2.83;;;15.80;94.90;;;;;;5015982;28;20052;-73
2023/10/19 04:31:55;;;;;;;10.88;2.83;;;15.70;95.00;;;;;;5020336;28;20083;-73
2023/10/19 04:34:21;;;;;;;12.30;2.75;;;15.80;95.00;;;;;;5014605;28;20069;-73
2023/10/19 04:36:48;;;;;;;14.93;3.10;;;15.80;95.00;;;;;;5015518;28;20403;-72
2023/10/19 04:39:14;;;;;;;10.82;2.67;;;15.80;94.90;;;;;;5015083;28;20026;-74
2023/10/19 04:41:44;;;;;;;7.88;2.03;;;15.70;94.90;;;;;;5014805;28;20037;-73
2023/10/19 04:44:09;;;;;;;13.40;2.70;;;15.80;94.90;;;;;;5012901;28;20151;-74
2023/10/19 04:46:36;;;;;;;11.85;2.92;;;15.80;94.90;;;;;;5018063;28;20124;-73
2023/10/19 04:49:03;;;;;;;13.32;3.38;;;15.70;95.00;;;;;;5016344;28;20121;-76
2023/10/19 04:51:29;;;;;;;14.07;2.78;;;15.80;95.00;;;;;;5016615;28;20068;-73
2023/10/19 04:53:55;;;;;;;12.55;2.88;;;15.80;95.10;;;;;;5014351;28;20029;-74
2023/10/19 04:56:21;;;;;;;12.18;2.85;;;15.80;95.00;;;;;;5006751;28;20459;-73
2023/10/19 04:58:47;;;;;;;11.82;2.65;;;15.80;95.00;;;;;;5023528;28;20387;-73
2023/10/19 05:01:14;;;;;;;11.52;2.65;;;15.80;95.10;;;;;;5017458;28;20056;-73
2023/10/19 05:03:41;;;;;;;13.52;2.72;;;15.80;95.10;;;;;;5016372;28;20018;-73
2023/10/19 05:06:07;;;;;;;11.60;2.63;;;15.70;95.20;;;;;;5021157;28;20073;-72
2023/10/19 05:08:32;;;;;;;10.98;2.92;;;15.70;95.20;;;;;;5015890;28;20061;-73
2023/10/19 05:11:01;;;;;;;13.52;2.67;;;15.70;95.20;;;;;;5017596;28;20041;-72
2023/10/19 05:13:27;;;;;;;16.25;3.20;;;15.70;95.30;;;;;;5022599;28;20046;-73
2023/10/19 05:15:54;;;;;;;14.63;3.00;;;15.70;95.30;;;;;;5021739;28;20147;-74
2023/10/19 05:18:21;;;;;;;14.18;3.03;;;15.70;95.30;;;;;;5018606;28;20120;-74
2023/10/19 05:20:47;;;;;;;12.77;3.10;;;15.80;95.30;;;;;;5019538;28;20033;-73
2023/10/19 05:23:13;;;;;;;14.25;3.40;;;15.70;95.40;;;;;;5021347;28;20497;-76
2023/10/19 05:25:39;;;;;;;13.65;3.10;;;15.70;95.40;;;;;;5021650;28;20399;-73
2023/10/19 05:28:05;;;;;;;14.35;3.47;;;15.70;95.40;;;;;;5022328;28;20044;-73
2023/10/19 05:30:35;;;;;;;11.00;2.80;;;15.70;95.40;;;;;;5026202;28;20037;-73
2023/10/19 05:33:05;;;;;;;11.50;2.75;;;15.70;95.50;;;;;;5021452;28;20671;-73
2023/10/19 05:35:34;;;;;;;10.50;2.45;;;15.70;95.50;;;;;;5021850;28;20046;-73
2023/10/19 05:38:01;;;;;;;15.48;2.97;;;15.70;95.50;;;;;;5024952;28;20029;-72
2023/10/19 05:40:29;;;;;;;13.50;2.90;;;15.70;95.50;;;;;;5017567;28;20579;-72
2023/10/19 05:42:57;;;;;;;13.68;3.17;;;15.60;95.50;;;;;;5022314;28;20138;-71
2023/10/19 05:45:23;;;;;;;13.32;3.00;;;15.60;95.50;;;;;;5023949;28;20049;-71
2023/10/19 05:47:49;;;;;;;14.68;3.33;;;15.60;95.70;;;;;;5016586;28;20121;-72
2023/10/19 05:50:15;;;;;;;16.20;3.55;;;15.60;95.70;;;;;;5023712;28;20132;-71
2023/10/19 05:52:44;;;;;;;15.55;3.03;;;15.60;95.80;;;;;;5021311;28;20648;-71
2023/10/19 05:55:10;;;;;;;12.13;3.50;;;15.50;95.90;;;;;;5019283;28;20068;-71
2023/10/19 05:57:40;;;;;;;13.75;3.55;;;15.50;95.90;;;;;;5018190;28;20688;-70
2023/10/19 06:00:12;;;;;;;14.10;3.63;;;15.50;96.00;;;;;;5019334;28;20038;-73
2023/10/19 06:02:46;;;;;;;14.98;3.20;;;15.50;96.00;;;;;;5022662;28;20025;-72
2023/10/19 06:05:15;;;;;;;17.80;4.43;;;15.50;96.10;;;;;;5021387;28;20049;-71
2023/10/19 06:07:41;;;;;;;14.07;3.65;;;15.40;96.30;;;;;;5019096;28;20033;-73
2023/10/19 06:10:07;;;;;;;14.02;3.28;;;15.40;96.30;;;;;;5022834;28;20411;-74
2023/10/19 06:12:34;;;;;;;14.85;3.10;;;15.40;96.30;;;;;;5022989;28;20558;-71
2023/10/19 06:15:00;;;;;;;13.45;3.05;;;15.50;96.30;;;;;;5022290;28;20125;-71
2023/10/19 06:17:27;;;;;;;17.00;4.18;;;15.40;96.30;;;;;;5022536;28;20140;-71
2023/10/19 06:19:54;;;;;;;20.02;4.07;;;15.50;96.40;;;;;;5022559;28;20493;-71
2023/10/19 06:22:19;;;;;;;18.65;4.25;;;15.40;96.50;;;;;;5019166;28;20041;-71
2023/10/19 06:24:45;;;;;;;21.88;4.03;;;15.40;96.50;;;;;;5022457;28;20043;-74
2023/10/19 06:27:10;;;;;;;20.13;4.88;;;15.40;96.50;;;;;;5021616;28;20034;-71
2023/10/19 06:29:36;;;;;;;15.35;4.10;;;15.40;96.60;;;;;;5019347;28;20033;-71
2023/10/19 06:32:02;;;;;;;18.67;5.10;;;15.40;96.70;;;;;;5014485;28;20037;-71
2023/10/19 06:34:28;;;;;;;16.08;3.92;;;15.40;96.70;;;;;;5020708;28;20500;-71
2023/10/19 06:36:54;;;;;;;13.60;3.58;;;15.40;96.80;;;;;;5022886;28;20038;-71
2023/10/19 06:39:23;;;;;;;17.10;4.32;;;15.40;96.70;;;;;;5022869;28;20033;-71
2023/10/19 06:41:49;;;;;;;15.52;4.22;;;15.50;96.60;;;;;;5025324;28;20087;-70
2023/10/19 06:44:16;;;;;;;17.65;4.18;;;15.50;96.60;;;;;;5019813;28;20112;-71
2023/10/19 06:46:43;;;;;;;15.15;4.45;;;15.50;96.60;;;;;;5023256;28;20037;-72
2023/10/19 06:49:09;;;;;;;13.20;4.45;;;15.50;96.50;;;;;;5019295;28;20404;-72
2023/10/19 06:51:36;;;;;;;15.43;4.35;;;15.50;96.50;;;;;;5022304;28;20034;-73
2023/10/19 06:54:02;;;;;;;13.05;4.60;;;15.60;96.40;;;;;;5023452;28;20540;-73
2023/10/19 06:56:27;;;;;;;17.45;4.40;;;15.60;96.30;;;;;;5024174;28;20120;-73
2023/10/19 06:58:53;;;;;;;19.15;4.88;;;15.60;96.30;;;;;;5024989;28;20029;-72
2023/10/19 07:01:23;;;;;;;17.27;4.53;;;15.70;96.30;;;;;;5023963;28;20034;-74
2023/10/19 07:03:48;;;;;;;14.40;4.57;;;15.60;96.20;;;;;;5019065;28;20026;-72
2023/10/19 07:06:14;;;;;;;16.27;3.92;;;15.70;96.10;;;;;;5019565;28;20068;-72
2023/10/19 07:08:43;;;;;;;18.33;4.30;;;15.70;96.10;;;;;;5021651;28;20056;-72
2023/10/19 07:11:09;;;;;;;21.17;4.93;;;15.70;96.10;;;;;;5025574;28;20084;-72
2023/10/19 07:13:35;;;;;;;14.98;3.60;;;15.70;96.00;;;;;;5024665;28;20017;-71
2023/10/19 07:16:01;;;;;;;16.17;4.20;;;15.70;96.10;;;;;;5019789;28;20045;-72
2023/10/19 07:18:26;;;;;;;14.75;4.55;;;15.70;96.00;;;;;;5022297;28;20040;-71
2023/10/19 07:20:53;;;;;;;13.43;4.43;;;15.70;96.10;;;;;;5019906;28;20029;-72
2023/10/19 07:23:21;;;;;;;14.20;4.28;;;15.80;96.00;;;;;;5024961;28;20483;-71
2023/10/19 07:25:48;;;;;;;16.15;4.70;;;15.80;96.00;;;;;;5020247;28;20033;-70
2023/10/19 07:28:15;;;;;;;17.27;4.50;;;15.80;96.00;;;;;;5016894;28;20042;-73
2023/10/19 07:30:42;;;;;;;15.82;4.43;;;15.80;96.00;;;;;;5020533;28;20029;-71
2023/10/19 07:33:09;;;;;;;16.08;4.35;;;15.80;96.00;;;;;;5018216;28;20045;-72
2023/10/19 07:35:42;;;;;;;13.20;3.72;;;15.80;95.90;;;;;;5022309;28;20034;-73
2023/10/19 07:38:08;;;;;;;19.13;4.57;;;15.80;95.90;;;;;;5020452;28;20083;-72
2023/10/19 07:40:34;;;;;;;15.30;4.30;;;15.90;95.90;;;;;;5021207;28;20037;-71
2023/10/19 07:43:00;;;;;;;14.13;4.00;;;15.90;95.80;;;;;;5024895;28;20055;-71
2023/10/19 07:45:26;;;;;;;13.40;4.20;;;15.90;95.80;;;;;;5018434;28;20050;-71
2023/10/19 07:47:51;;;;;;;16.88;4.70;;;15.90;95.80;;;;;;5021245;28;20038;-72
2023/10/19 07:50:17;;;;;;;19.15;5.45;;;15.90;95.80;;;;;;5014960;28;20044;-71
2023/10/19 07:52:53;;;;;;;16.42;4.38;;;16.00;95.70;;;;;;5023089;28;20033;-71
2023/10/19 07:55:23;;;;;;;18.58;4.93;;;16.10;95.60;;;;;;5018288;28;20472;-72
2023/10/19 07:57:52;;;;;;;17.08;4.70;;;16.10;95.60;;;;;;5022814;28;20056;-73
2023/10/19 08:00:20;;;;;;;18.92;4.95;;;16.10;95.50;;;;;;5019559;28;20091;-73
2023/10/19 08:02:45;;;;;;;16.83;4.57;;;16.20;95.40;;;;;;5017450;28;20174;-74
2023/10/19 08:05:13;;;;;;;21.55;4.40;;;16.30;95.30;;;;;;5018658;28;20493;-72
2023/10/19 08:07:42;;;;;;;14.55;4.65;;;16.40;95.10;;;;;;5021880;28;20536;-74
2023/10/19 08:10:12;;;;;;;18.23;4.63;;;16.30;95.00;;;;;;5016373;28;20041;-73
2023/10/19 08:12:42;;;;;;;14.23;3.45;;;16.40;94.90;;;;;;5026324;28;20419;-73
2023/10/19 08:15:11;;;;;;;14.82;4.10;;;16.50;94.70;;;;;;5025500;28;20049;-73
2023/10/19 08:17:40;;;;;;;14.30;4.40;;;16.60;94.60;;;;;;5027844;28;20030;-72
2023/10/19 08:20:15;;;;;;;20.00;4.72;;;16.70;94.30;;;;;;5027909;28;20091;-73
2023/10/19 08:22:43;;;;;;;15.30;3.85;;;16.80;94.20;;;;;;5028006;28;20444;-72
2023/10/19 08:25:12;;;;;;;16.13;3.72;;;17.00;93.80;;;;;;5023826;28;20083;-73
2023/10/19 08:27:51;;;;;;;15.15;4.07;;;17.00;93.20;;;;;;5023196;28;20030;-74
2023/10/19 08:30:18;;;;;;;17.98;3.95;;;17.10;93.00;;;;;;5015771;28;20396;-73
2023/10/19 08:32:51;;;;;;;18.40;4.20;;;17.20;93.00;;;;;;5022056;28;20029;-75
2023/10/19 08:35:24;;;;;;;16.40;4.22;;;17.30;92.60;;;;;;5023391;28;20388;-72
2023/10/19 08:37:50;;;;;;;17.20;3.80;;;17.30;92.40;;;;;;5024357;28;20042;-73
2023/10/19 08:40:17;;;;;;;16.77;3.70;;;17.30;92.20;;;;;;5022142;28;20061;-72
2023/10/19 08:42:45;;;;;;;11.88;3.30;;;17.30;92.30;;;;;;5027570;28;20022;-74
2023/10/19 08:45:14;;;;;;;17.63;4.18;;;17.40;92.40;;;;;;5021095;28;20030;-73
2023/10/19 08:47:57;;;;;;;14.55;3.80;;;17.50;92.10;;;;;;5019592;28;20049;-73
2023/10/19 08:50:24;;;;;;;19.23;4.00;;;17.60;91.60;;;;;;5016245;28;20481;-75
2023/10/19 08:52:54;;;;;;;19.02;4.38;;;17.60;91.70;;;;;;5019137;28;20129;-76
2023/10/19 08:55:20;;;;;;;15.50;3.67;;;17.70;91.30;;;;;;5017193;28;20046;-72
2023/10/19 08:57:51;;;;;;;14.55;3.30;;;17.70;91.00;;;;;;5020790;28;20063;-74
2023/10/19 09:00:18;;;;;;;13.05;3.22;;;17.60;91.00;;;;;;5021697;28;20415;-74
2023/10/19 09:02:48;;;;;;;21.77;4.28;;;17.40;91.40;;;;;;5019902;28;20029;-73
2023/10/19 09:05:22;;;;;;;17.77;3.65;;;17.30;91.90;;;;;;5017308;28;20034;-74
2023/10/19 09:07:54;;;;;;;;;;;17.30;92.10;;;;;;5024763;28;20136;-73
2023/10/19 09:10:27;;;;;;;15.32;3.80;;;17.20;92.30;;;;;;5015438;28;19924;-72
2023/10/19 09:13:10;;;;;;;13.32;3.17;;;17.20;92.50;;;;;;5013074;28;20033;-74
2023/10/19 09:15:38;;;;;;;17.10;4.00;;;17.20;92.60;;;;;;5018797;28;20040;-72
2023/10/19 09:18:15;;;;;;;17.65;4.32;;;17.40;92.50;;;;;;5024409;28;20138;-73
2023/10/19 09:20:52;;;;;;;13.73;3.47;;;17.50;92.30;;;;;;5019441;28;20391;-72
2023/10/19 09:23:18;;;;;;;16.45;3.35;;;17.60;92.00;;;;;;5022840;28;20032;-72
2023/10/19 09:25:45;;;;;;;17.85;3.55;;;17.80;91.60;;;;;;5022143;28;20032;-73
2023/10/19 09:28:13;;;;;;;23.40;4.47;;;17.90;91.00;;;;;;5013823;28;20805;-72
2023/10/19 09:30:40;;;;;;;13.52;3.30;;;17.90;90.80;;;;;;5017956;28;20042;-72
2023/10/19 09:33:07;;;;;;;15.57;3.70;;;17.90;90.80;;;;;;5021576;28;20430;-73
2023/10/19 09:35:34;;;;;;;15.93;3.58;;;17.90;90.60;;;;;;5013909;28;20400;-72
2023/10/19 09:38:00;;;;;;;15.73;4.07;;;18.00;90.90;;;;;;5024131;28;20065;-72
2023/10/19 09:40:29;;;;;;;14.15;3.47;;;17.90;90.60;;;;;;5021705;28;20464;-73
2023/10/19 09:42:57;;;;;;;19.90;3.88;;;17.90;90.70;;;;;;5022723;28;20420;-71
2023/10/19 09:45:27;;;;;;;16.20;3.60;;;17.90;90.70;;;;;;5016532;28;20065;-71
2023/10/19 09:47:54;;;;;;;20.08;4.88;;;18.00;90.80;;;;;;5018142;28;20095;-72
2023/10/19 09:50:20;;;;;;;18.27;4.13;;;18.00;90.70;;;;;;5022170;28;20037;-71
2023/10/19 09:52:46;;;;;;;15.68;3.58;;;17.90;91.00;;;;;;5023766;28;20400;-71
2023/10/19 09:55:20;;;;;;;19.70;4.45;;;17.90;91.00;;;;;;5018209;28;20029;-72
2023/10/19 09:57:52;;;;;;;20.80;4.40;;;17.80;91.00;;;;;;5018320;28;20068;-75
2023/10/19 10:00:23;;;;;;;22.98;4.82;;;17.90;91.20;;;;;;5018114;28;20033;-72
2023/10/19 10:02:50;;;;;;;13.95;3.88;;;17.80;91.40;;;;;;5021031;28;20766;-71
2023/10/19 10:05:43;;;;;;;16.38;4.25;;;17.70;91.70;;;;;;5018235;28;20034;-73
2023/10/19 10:08:18;;;;;;;17.25;3.58;;;17.70;92.10;;;;;;5017641;28;20585;-71
2023/10/19 10:10:44;;;;;;;;;;;17.60;92.50;;;;;;5016357;28;20372;-72
2023/10/19 10:13:24;;;;;;;15.27;4.00;;;17.60;92.70;;;;;;5022266;28;20097;-72
2023/10/19 10:16:04;;;;;;;14.00;4.28;;;17.50;93.30;;;;;;5013081;28;20136;-71
2023/10/19 10:18:34;;;;;;;16.02;3.72;;;17.40;93.60;;;;;;5020159;28;20036;-71
2023/10/19 10:21:24;;;;;;;15.57;3.53;;;17.30;94.10;;;;;;5015238;28;20083;-72
2023/10/19 10:23:57;;;;;;;17.75;3.95;;;17.30;94.20;;;;;;5015117;28;20047;-72
2023/10/19 10:26:25;;;;;;;16.23;3.72;;;17.40;94.30;;;;;;5017631;28;20034;-72
2023/10/19 10:29:23;;;;;;;16.98;4.50;;;17.30;94.30;;;;;;5012270;28;20030;-73
2023/10/19 10:31:50;;;;;;;20.08;4.15;;;17.20;94.30;;;;;;5017729;28;20487;-71
2023/10/19 10:34:36;;;;;;;16.13;3.70;;;17.20;94.50;;;;;;5019352;28;20029;-73
2023/10/19 10:37:09;;;;;;;15.80;3.10;;;17.20;94.70;;;;;;5017552;28;20356;-74
2023/10/19 10:39:36;;;;;;;13.50;3.67;;;17.30;94.70;;;;;;5016488;28;20058;-73
2023/10/19 10:42:04;;;;;;;15.32;3.42;;;17.40;94.70;;;;;;5015097;28;20029;-73
2023/10/19 10:44:40;;;;;;;15.25;3.97;;;17.40;94.70;;;;;;5020316;28;20072;-74
2023/10/19 10:47:24;;;;;;;15.35;3.50;;;17.60;94.80;;;;;;5018914;28;20032;-72
2023/10/19 10:49:51;;;;;;;13.80;4.00;;;17.70;94.70;;;;;;5018894;28;20065;-73
2023/10/19 10:52:43;;;;;;;15.40;3.50;;;18.00;94.50;;;;;;5018206;28;20021;-72
2023/10/19 10:55:11;;;;;;;14.68;3.45;;;18.50;93.80;;;;;;5009686;28;20063;-74
2023/10/19 10:57:37;;;;;;;14.38;3.22;;;18.90;93.40;;;;;;5019002;28;20045;-75
2023/10/19 11:00:07;;;;;;;13.80;2.70;;;19.30;91.90;;;;;;5018786;28;20035;-73
2023/10/19 11:02:36;;;;;;;19.60;3.55;;;19.20;90.40;;;;;;5018529;28;20571;-73
2023/10/19 11:05:03;;;;;;;12.13;2.75;;;19.20;90.10;;;;;;5018864;28;20037;-72
2023/10/19 11:07:29;;;;;;;13.15;2.88;;;19.00;90.50;;;;;;5020500;28;20448;-74
2023/10/19 11:09:55;;;;;;;11.80;2.70;;;19.00;90.20;;;;;;5016572;28;20033;-73
2023/10/19 11:12:21;;;;;;;11.52;3.50;;;19.10;89.90;;;;;;5019775;28;20533;-72
2023/10/19 11:14:54;;;;;;;16.02;4.00;;;19.00;89.60;;;;;;5016580;28;20034;-72
2023/10/19 11:17:23;;;;;;;13.32;3.25;;;19.00;90.10;;;;;;5021574;28;20452;-73
2023/10/19 11:19:49;;;;;;;17.85;4.07;;;19.00;90.40;;;;;;5017319;28;20033;-74
2023/10/19 11:22:15;;;;;;;11.98;3.45;;;19.00;90.10;;;;;;5012627;28;20026;-72
2023/10/19 11:24:40;;;;;;;14.75;3.25;;;18.90;90.60;;;;;;5010143;28;20091;-72
2023/10/19 11:27:11;;;;;;;12.32;2.83;;;19.00;90.60;;;;;;5017693;28;20167;-73
2023/10/19 11:29:38;;;;;;;16.02;3.67;;;19.10;90.60;;;;;;5015533;28;20041;-73
2023/10/19 11:32:04;;;;;;;11.82;2.90;;;19.20;90.80;;;;;;5019443;28;20102;-73
2023/10/19 11:34:30;;;;;;;12.23;2.90;;;19.20;90.10;;;;;;5015537;28;20064;-72
2023/10/19 11:37:03;;;;;;;12.70;3.20;;;19.10;89.70;;;;;;5018334;28;20120;-72
2023/10/19 11:39:28;;;;;;;14.32;3.72;;;19.10;89.60;;;;;;5019348;28;20486;-73
2023/10/19 11:41:54;;;;;;;13.43;3.80;;;19.00;89.80;;;;;;5017311;28;20033;-75
2023/10/19 11:44:20;;;;;;;11.50;3.70;;;19.10;89.80;;;;;;5014393;28;20022;-72
2023/10/19 11:46:45;;;;;;;12.60;3.58;;;19.10;89.80;;;;;;5015214;28;20099;-72
2023/10/19 11:49:11;;;;;;;11.15;3.45;;;19.20;89.70;;;;;;5014139;28;20037;-73
2023/10/19 11:51:37;;;;;;;8.52;2.95;;;19.30;90.00;;;;;;5007698;28;20030;-73
2023/10/19 11:54:06;;;;;;;10.70;2.80;;;19.50;90.00;;;;;;5015997;28;20099;-74
2023/10/19 11:56:32;;;;;;;8.18;2.63;;;19.40;89.70;;;;;;5021613;28;20091;-73
2023/10/19 11:58:57;;;;;;;8.88;2.70;;;19.50;89.60;;;;;;5008653;28;20400;-72
2023/10/19 12:01:25;;;;;;;11.52;3.15;;;19.70;89.40;;;;;;5014579;28;20050;-73
2023/10/19 12:03:51;;;;;;;9.23;2.67;;;19.70;88.60;;;;;;5021570;28;20029;-73
2023/10/19 12:06:20;;;;;;;9.13;2.38;;;19.60;88.40;;;;;;5021709;28;20129;-74
2023/10/19 12:08:46;;;;;;;9.80;2.95;;;19.60;88.30;;;;;;5026337;28;20033;-74
2023/10/19 12:11:16;;;;;;;9.10;2.63;;;19.50;88.50;;;;;;5016527;28;20042;-73
2023/10/19 12:13:45;;;;;;;8.82;2.47;;;19.40;88.70;;;;;;5011897;28;20018;-73
2023/10/19 12:16:15;;;;;;;8.00;2.75;;;19.30;88.80;;;;;;5014564;28;20036;-73
2023/10/19 12:18:44;;;;;;;7.50;2.58;;;19.10;88.80;;;;;;5021428;28;20108;-74
2023/10/19 12:21:14;;;;;;;12.77;2.70;;;19.10;89.20;;;;;;5013430;28;20121;-72
2023/10/19 12:23:41;;;;;;;11.57;2.95;;;19.10;89.30;;;;;;5011392;28;20053;-72
2023/10/19 12:26:11;;;;;;;8.95;3.00;;;19.00;89.10;;;;;;5017696;28;20117;-75
2023/10/19 12:28:40;;;;;;;9.63;2.90;;;19.10;89.30;;;;;;5018411;28;20041;-76
2023/10/19 12:31:10;;;;;;;6.75;2.60;;;19.00;89.50;;;;;;5017841;28;20040;-72
2023/10/19 12:33:38;;;;;;;6.88;2.40;;;19.00;89.60;;;;;;5021623;28;20099;-74
2023/10/19 12:36:24;;;;;;;9.27;2.60;;;19.00;89.50;;;;;;5016720;28;20451;-74
2023/10/19 12:38:51;;;;;;;8.65;2.50;;;19.00;89.50;;;;;;5020930;28;20117;-72
2023/10/19 12:41:17;;;;;;;7.72;2.72;;;19.10;89.60;;;;;;5008189;28;20041;-72
2023/10/19 12:43:43;;;;;;;8.93;2.65;;;19.30;89.90;;;;;;5019396;28;20068;-74
2023/10/19 12:46:11;;;;;;;8.52;2.55;;;19.60;89.20;;;;;;5015626;28;20033;-73
2023/10/19 12:48:37;;;;;;;8.88;2.75;;;20.00;87.90;;;;;;5014195;28;20485;-75
2023/10/19 12:51:06;;;;;;;8.95;2.25;;;20.30;86.50;;;;;;5018926;28;20120;-73
2023/10/19 12:53:33;;;;;;;9.10;2.70;;;20.40;85.50;;;;;;5016675;28;20026;-71
2023/10/19 12:55:59;;;;;;;5.88;2.05;;;20.50;85.10;;;;;;5008250;28;20034;-72
2023/10/19 12:58:27;;;;;;;8.23;2.30;;;20.60;85.30;;;;;;5025606;28;20042;-73
2023/10/19 13:00:55;;;;;;;7.45;2.35;;;20.80;85.10;;;;;;5018282;28;20396;-71
2023/10/19 13:03:21;;;;;;;9.15;3.20;;;20.80;84.40;;;;;;5022276;28;20544;-72
2023/10/19 13:05:49;;;;;;;7.65;2.33;;;20.60;84.50;;;;;;5019474;28;20578;-72
2023/10/19 13:08:15;;;;;;;8.65;3.17;;;20.60;84.70;;;;;;5014620;28;20021;-73